sensor_id;sensor_type;location;lat;lon;timestamp;pressure;altitude;pressure_sealevel;temperature;humidity
17950;BME280;9100;48.700;9.316;2024-02-21T00:00:16;98745.5;;;8.05;100
17950;BME280;9100;48.700;9.316;2024-02-21T00:01:16;98755.7;;;8.05;100
17950;BME280;9100;48.700;9.316;2024-02-21T00:02:16;98755.7;;;8.05;100
17950;BME280;9100;48.700;9.316;2024-02-21T00:03:16;98753.4;;;8.02;100
17950;BME280;9100;48.700;9.316;2024-02-21T00:03:32;98761;;;8.02;100
17950;BME280;9100;48.700;9.316;2024-02-21T00:04:16;98755.1;;;8.01;100
17950;BME280;9100;48.700;9.316;2024-02-21T00:05:16;98766.09999999999;;;8.02;100
17950;BME280;9100;48.700;9.316;2024-02-21T00:06:16;98759.3;;;8.02;100
17950;BME280;9100;48.700;9.316;2024-02-21T00:07:16;98764.5;;;8.01;100
17950;BME280;9100;48.700;9.316;2024-02-21T00:08:16;98756.2;;;7.99;100
17950;BME280;9100;48.700;9.316;2024-02-21T00:08:32;98760.5;;;7.98;100
17950;BME280;9100;48.700;9.316;2024-02-21T00:09:16;98756.2;;;7.99;100
17950;BME280;9100;48.700;9.316;2024-02-21T00:10:16;98750.3;;;7.98;100
17950;BME280;9100;48.700;9.316;2024-02-21T00:11:16;98753.7;;;7.99;100
17950;BME280;9100;48.700;9.316;2024-02-21T00:12:16;98749.5;;;7.98;100
17950;BME280;9100;48.700;9.316;2024-02-21T00:13:16;98756.5;;;7.96;100
17950;BME280;9100;48.700;9.316;2024-02-21T00:13:32;98754.9;;;7.95;100
17950;BME280;9100;48.700;9.316;2024-02-21T00:14:16;98754.9;;;7.95;100
17950;BME280;9100;48.700;9.316;2024-02-21T00:15:16;98749;;;7.94;100
17950;BME280;9100;48.700;9.316;2024-02-21T00:16:16;98756;;;7.92;100
17950;BME280;9100;48.700;9.316;2024-02-21T00:17:16;98754.5;;;7.9;100
17950;BME280;9100;48.700;9.316;2024-02-21T00:18:16;98746.2;;;7.88;100
17950;BME280;9100;48.700;9.316;2024-02-21T00:18:32;98753.8;;;7.88;100
17950;BME280;9100;48.700;9.316;2024-02-21T00:19:16;98757.3;;;7.87;100
17950;BME280;9100;48.700;9.316;2024-02-21T00:20:16;98757.3;;;7.87;100
17950;BME280;9100;48.700;9.316;2024-02-21T00:21:16;98750.5;;;7.87;100
17950;BME280;9100;48.700;9.316;2024-02-21T00:22:16;98744.7;;;7.85;100
17950;BME280;9100;48.700;9.316;2024-02-21T00:23:16;98753.9;;;7.86;100
17950;BME280;9100;48.700;9.316;2024-02-21T00:23:32;98749;;;7.85;100
17950;BME280;9100;48.700;9.316;2024-02-21T00:24:16;98748;;;7.86;100
17950;BME280;9100;48.700;9.316;2024-02-21T00:25:16;98747.2;;;7.85;100
17950;BME280;9100;48.700;9.316;2024-02-21T00:26:16;98745.5;;;7.86;100
17950;BME280;9100;48.700;9.316;2024-02-21T00:27:16;98754.1;;;7.85;100
17950;BME280;9100;48.700;9.316;2024-02-21T00:28:16;98748.2;;;7.84;100
17950;BME280;9100;48.700;9.316;2024-02-21T00:28:32;98751.5;;;7.85;100
17950;BME280;9100;48.700;9.316;2024-02-21T00:29:16;98749.59999999999;;;7.87;100
17950;BME280;9100;48.700;9.316;2024-02-21T00:30:16;98747.1;;;7.87;100
17950;BME280;9100;48.700;9.316;2024-02-21T00:31:16;98741.09999999999;;;7.88;100
17950;BME280;9100;48.700;9.316;2024-02-21T00:32:16;98740.09999999999;;;7.89;100
17950;BME280;9100;48.700;9.316;2024-02-21T00:33:16;98740.09999999999;;;7.89;100
17950;BME280;9100;48.700;9.316;2024-02-21T00:33:32;98741.09999999999;;;7.88;100
17950;BME280;9100;48.700;9.316;2024-02-21T00:34:16;98740.09999999999;;;7.89;100
17950;BME280;9100;48.700;9.316;2024-02-21T00:35:16;98736.6;;;7.9;100
17950;BME280;9100;48.700;9.316;2024-02-21T00:36:16;98724.90000000001;;;7.89;100
17950;BME280;9100;48.700;9.316;2024-02-21T00:37:16;98724.90000000001;;;7.89;100
17950;BME280;9100;48.700;9.316;2024-02-21T00:38:16;98725.59999999999;;;7.89;100
17950;BME280;9100;48.700;9.316;2024-02-21T00:38:32;98724.90000000001;;;7.89;100
17950;BME280;9100;48.700;9.316;2024-02-21T00:39:16;98727.4;;;7.89;100
17950;BME280;9100;48.700;9.316;2024-02-21T00:40:17;98691.2;;;7.66;100
17950;BME280;9100;48.700;9.316;2024-02-21T00:41:16;98724.2;;;7.87;100
17950;BME280;9100;48.700;9.316;2024-02-21T00:42:16;98720.8;;;7.86;100
17950;BME280;9100;48.700;9.316;2024-02-21T00:43:16;98723.5;;;7.85;100
17950;BME280;9100;48.700;9.316;2024-02-21T00:43:32;98723.7;;;7.83;100
17950;BME280;9100;48.700;9.316;2024-02-21T00:44:16;98721;;;7.85;100
17950;BME280;9100;48.700;9.316;2024-02-21T00:45:16;98721.90000000001;;;7.84;100
17950;BME280;9100;48.700;9.316;2024-02-21T00:46:16;98722.6;;;7.86;100
17950;BME280;9100;48.700;9.316;2024-02-21T00:47:16;98723.5;;;7.85;100
17950;BME280;9100;48.700;9.316;2024-02-21T00:48:16;98716;;;7.83;100
17950;BME280;9100;48.700;9.316;2024-02-21T00:48:32;98720.2;;;7.84;100
17950;BME280;9100;48.700;9.316;2024-02-21T00:49:16;98718.4;;;7.85;100
17950;BME280;9100;48.700;9.316;2024-02-21T00:50:16;98720;;;7.86;100
17950;BME280;9100;48.700;9.316;2024-02-21T00:51:16;98717.6;;;7.84;100
17950;BME280;9100;48.700;9.316;2024-02-21T00:52:16;98721.1;;;7.83;100
17950;BME280;9100;48.700;9.316;2024-02-21T00:53:16;98715.20000000001;;;7.83;100
17950;BME280;9100;48.700;9.316;2024-02-21T00:53:32;98718.7;;;7.82;100
17950;BME280;9100;48.700;9.316;2024-02-21T00:54:16;98721.40000000001;;;7.8;100
17950;BME280;9100;48.700;9.316;2024-02-21T00:55:16;98712.8;;;7.81;100
17950;BME280;9100;48.700;9.316;2024-02-21T00:56:16;98712.90000000001;;;7.79;100
17950;BME280;9100;48.700;9.316;2024-02-21T00:57:16;98719.9;;;7.77;100
17950;BME280;9100;48.700;9.316;2024-02-21T00:58:16;98713.2;;;7.76;100
17950;BME280;9100;48.700;9.316;2024-02-21T00:58:32;98714;;;7.77;100
17950;BME280;9100;48.700;9.316;2024-02-21T00:59:16;98712.09999999999;;;7.79;100
17950;BME280;9100;48.700;9.316;2024-02-21T01:00:17;98709.5;;;7.8;100
17950;BME280;9100;48.700;9.316;2024-02-21T01:01:20;98712;;;7.8;100
17950;BME280;9100;48.700;9.316;2024-02-21T01:02:16;98714.4;;;7.82;100
17950;BME280;9100;48.700;9.316;2024-02-21T01:03:16;98706;;;7.82;100
17950;BME280;9100;48.700;9.316;2024-02-21T01:03:32;98712;;;7.8;100
17950;BME280;9100;48.700;9.316;2024-02-21T01:04:16;98708.4;;;7.83;100
17950;BME280;9100;48.700;9.316;2024-02-21T01:05:16;98710.90000000001;;;7.83;100
17950;BME280;9100;48.700;9.316;2024-02-21T01:06:16;98705;;;7.83;100
17950;BME280;9100;48.700;9.316;2024-02-21T01:07:16;98715.20000000001;;;7.83;100
17950;BME280;9100;48.700;9.316;2024-02-21T01:08:16;98712.7;;;7.83;100
17950;BME280;9100;48.700;9.316;2024-02-21T01:08:32;98707.6;;;7.83;100
17950;BME280;9100;48.700;9.316;2024-02-21T01:09:16;98712.7;;;7.83;100
17950;BME280;9100;48.700;9.316;2024-02-21T01:10:16;98708.3;;;7.85;100
17950;BME280;9100;48.700;9.316;2024-02-21T01:11:16;98709.79999999999;;;7.86;100
17950;BME280;9100;48.700;9.316;2024-02-21T01:12:16;98711.40000000001;;;7.87;100
17950;BME280;9100;48.700;9.316;2024-02-21T01:13:16;98711.3;;;7.88;100
17950;BME280;9100;48.700;9.316;2024-02-21T01:13:32;98708;;;7.88;100
17950;BME280;9100;48.700;9.316;2024-02-21T01:14:16;98708.6;;;7.9;100
17950;BME280;9100;48.700;9.316;2024-02-21T01:15:16;98705.2;;;7.91;100
17950;BME280;9100;48.700;9.316;2024-02-21T01:16:16;98704.5;;;7.89;100
17950;BME280;9100;48.700;9.316;2024-02-21T01:17:16;98704.2;;;7.92;100
17950;BME280;9100;48.700;9.316;2024-02-21T01:18:16;98701;;;7.9;100
17950;BME280;9100;48.700;9.316;2024-02-21T01:18:32;98703.4;;;7.91;100
17950;BME280;9100;48.700;9.316;2024-02-21T01:19:16;98694;;;7.92;100
17950;BME280;9100;48.700;9.316;2024-02-21T01:20:16;98690.5;;;7.93;100
17950;BME280;9100;48.700;9.316;2024-02-21T01:21:16;98690.5;;;7.93;100
17950;BME280;9100;48.700;9.316;2024-02-21T01:22:16;98688.8;;;7.93;100
17950;BME280;9100;48.700;9.316;2024-02-21T01:23:16;98685.5;;;7.93;100
17950;BME280;9100;48.700;9.316;2024-02-21T01:23:32;98687;;;7.94;100
17950;BME280;9100;48.700;9.316;2024-02-21T01:24:16;98682.8;;;7.94;100
17950;BME280;9100;48.700;9.316;2024-02-21T01:25:16;98682;;;7.94;100
17950;BME280;9100;48.700;9.316;2024-02-21T01:26:16;98678.5;;;7.95;100
17950;BME280;9100;48.700;9.316;2024-02-21T01:27:16;98676.9;;;7.94;100
17950;BME280;9100;48.700;9.316;2024-02-21T01:28:16;98677.70000000001;;;7.94;100
17950;BME280;9100;48.700;9.316;2024-02-21T01:28:32;98678.5;;;7.95;100
17950;BME280;9100;48.700;9.316;2024-02-21T01:29:16;98671.8;;;7.94;100
17950;BME280;9100;48.700;9.316;2024-02-21T01:30:17;98669.1;;;7.95;100
17950;BME280;9100;48.700;9.316;2024-02-21T01:31:16;98669.2;;;7.94;100
17950;BME280;9100;48.700;9.316;2024-02-21T01:32:16;98671.8;;;7.94;100
17950;BME280;9100;48.700;9.316;2024-02-21T01:33:16;98667;;;7.91;100
17950;BME280;9100;48.700;9.316;2024-02-21T01:33:32;98671.1;;;7.92;100
17950;BME280;9100;48.700;9.316;2024-02-21T01:34:16;98665.3;;;7.9;100
17950;BME280;9100;48.700;9.316;2024-02-21T01:35:16;98667;;;7.91;100
17950;BME280;9100;48.700;9.316;2024-02-21T01:36:16;98667;;;7.91;100
17950;BME280;9100;48.700;9.316;2024-02-21T01:37:16;98656.1;;;7.89;100
17950;BME280;9100;48.700;9.316;2024-02-21T01:38:16;98650.3;;;7.87;100
17950;BME280;9100;48.700;9.316;2024-02-21T01:38:32;98660.5;;;7.87;100
17950;BME280;9100;48.700;9.316;2024-02-21T01:39:16;98651.3;;;7.86;100
17950;BME280;9100;48.700;9.316;2024-02-21T01:40:16;98643.6;;;7.86;100
17950;BME280;9100;48.700;9.316;2024-02-21T01:41:16;98650.5;;;7.85;100
17950;BME280;9100;48.700;9.316;2024-02-21T01:42:17;98645.6;;;7.82;100
17950;BME280;9100;48.700;9.316;2024-02-21T01:43:16;98645;;;7.8;100
17950;BME280;9100;48.700;9.316;2024-02-21T01:43:32;98644.2;;;7.79;100
17950;BME280;9100;48.700;9.316;2024-02-21T01:44:16;98641.8;;;7.78;100
17950;BME280;9100;48.700;9.316;2024-02-21T01:45:16;98636.1;;;7.74;100
17950;BME280;9100;48.700;9.316;2024-02-21T01:46:16;98633.8;;;7.73;100
17950;BME280;9100;48.700;9.316;2024-02-21T01:47:16;98638.3;;;7.69;100
17950;BME280;9100;48.700;9.316;2024-02-21T01:48:17;98640.20000000001;;;7.67;100
17950;BME280;9100;48.700;9.316;2024-02-21T01:48:32;98635.2;;;7.66;100
17950;BME280;9100;48.700;9.316;2024-02-21T01:49:16;98629.3;;;7.65;100
17950;BME280;9100;48.700;9.316;2024-02-21T01:50:16;98634.6;;;7.64;100
17950;BME280;9100;48.700;9.316;2024-02-21T01:51:16;98633.8;;;7.63;100
17950;BME280;9100;48.700;9.316;2024-02-21T01:52:16;98629.5;;;7.64;100
17950;BME280;9100;48.700;9.316;2024-02-21T01:53:17;98628.7;;;7.63;100
17950;BME280;9100;48.700;9.316;2024-02-21T01:53:32;98627.09999999999;;;7.62;100
17950;BME280;9100;48.700;9.316;2024-02-21T01:54:16;98628.7;;;7.63;100
17950;BME280;9100;48.700;9.316;2024-02-21T01:55:16;98626.09999999999;;;7.63;100
17950;BME280;9100;48.700;9.316;2024-02-21T01:56:16;98625.2;;;7.64;100
17950;BME280;9100;48.700;9.316;2024-02-21T01:57:16;98624.5;;;7.62;100
17950;BME280;9100;48.700;9.316;2024-02-21T01:58:16;98626.3;;;7.62;100
17950;BME280;9100;48.700;9.316;2024-02-21T01:58:32;98617;;;7.61;100
17950;BME280;9100;48.700;9.316;2024-02-21T01:59:17;98620.4;;;7.61;100
17950;BME280;9100;48.700;9.316;2024-02-21T02:00:16;98610.79999999999;;;7.63;100
17950;BME280;9100;48.700;9.316;2024-02-21T02:01:17;98615;;;7.64;100
17950;BME280;9100;48.700;9.316;2024-02-21T02:02:16;98614.09999999999;;;7.65;100
17950;BME280;9100;48.700;9.316;2024-02-21T02:03:16;98609.1;;;7.64;100
17950;BME280;9100;48.700;9.316;2024-02-21T02:03:32;98610.7;;;7.65;100
17950;BME280;9100;48.700;9.316;2024-02-21T02:04:17;98611.5;;;7.65;100
17950;BME280;9100;48.700;9.316;2024-02-21T02:05:16;98610.6;;;7.66;100
17950;BME280;9100;48.700;9.316;2024-02-21T02:06:16;98611.5;;;7.65;100
17950;BME280;9100;48.700;9.316;2024-02-21T02:07:16;98609;;;7.65;100
17950;BME280;9100;48.700;9.316;2024-02-21T02:08:17;98609.90000000001;;;7.64;100
17950;BME280;9100;48.700;9.316;2024-02-21T02:08:32;98601.59999999999;;;7.62;100
17950;BME280;9100;48.700;9.316;2024-02-21T02:09:16;98607.5;;;7.63;100
17950;BME280;9100;48.700;9.316;2024-02-21T02:10:16;98604;;;7.64;100
17950;BME280;9100;48.700;9.316;2024-02-21T02:11:16;98599.7;;;7.64;100
17950;BME280;9100;48.700;9.316;2024-02-21T02:12:16;98593;;;7.63;100
17950;BME280;9100;48.700;9.316;2024-02-21T02:13:16;98600.9;;;7.6;100
17950;BME280;9100;48.700;9.316;2024-02-21T02:13:32;98594.2;;;7.59;100
17950;BME280;9100;48.700;9.316;2024-02-21T02:14:16;98499.3;;;6.93;100
17950;BME280;9100;48.700;9.316;2024-02-21T02:15:16;98592.7;;;7.58;100
17950;BME280;9100;48.700;9.316;2024-02-21T02:16:16;98599.3;;;7.59;100
17950;BME280;9100;48.700;9.316;2024-02-21T02:17:16;98602.70000000001;;;7.6;100
17950;BME280;9100;48.700;9.316;2024-02-21T02:18:18;98595.2;;;7.58;100
17950;BME280;9100;48.700;9.316;2024-02-21T02:18:32;98595.2;;;7.58;100
17950;BME280;9100;48.700;9.316;2024-02-21T02:19:16;98593.3;;;7.6;100
17950;BME280;9100;48.700;9.316;2024-02-21T02:20:16;98593.3;;;7.6;100
17950;BME280;9100;48.700;9.316;2024-02-21T02:21:23;98598.40000000001;;;7.6;100
17950;BME280;9100;48.700;9.316;2024-02-21T02:22:19;98587.3;;;7.61;100
17950;BME280;9100;48.700;9.316;2024-02-21T02:23:18;98598.40000000001;;;7.6;100
17950;BME280;9100;48.700;9.316;2024-02-21T02:23:32;98593.3;;;7.6;100
17950;BME280;9100;48.700;9.316;2024-02-21T02:24:16;98587.40000000001;;;7.6;100
17950;BME280;9100;48.700;9.316;2024-02-21T02:25:16;98586.3;;;7.62;100
17950;BME280;9100;48.700;9.316;2024-02-21T02:26:16;98587.3;;;7.61;100
17950;BME280;9100;48.700;9.316;2024-02-21T02:27:16;98583.90000000001;;;7.61;100
17950;BME280;9100;48.700;9.316;2024-02-21T02:28:16;98576.4;;;7.59;100
17950;BME280;9100;48.700;9.316;2024-02-21T02:28:32;98582.5;;;7.58;100
17950;BME280;9100;48.700;9.316;2024-02-21T02:29:16;98576.4;;;7.59;100
17950;BME280;9100;48.700;9.316;2024-02-21T02:30:17;98577.20000000001;;;7.6;100
17950;BME280;9100;48.700;9.316;2024-02-21T02:31:16;98581.4;;;7.61;100
17950;BME280;9100;48.700;9.316;2024-02-21T02:32:16;98573.7;;;7.61;100
17950;BME280;9100;48.700;9.316;2024-02-21T02:33:16;98568.5;;;7.62;100
17950;BME280;9100;48.700;9.316;2024-02-21T02:33:32;98571.1;;;7.62;100
17950;BME280;9100;48.700;9.316;2024-02-21T02:34:16;98566.8;;;7.63;100
17950;BME280;9100;48.700;9.316;2024-02-21T02:35:16;98566;;;7.62;100
17950;BME280;9100;48.700;9.316;2024-02-21T02:36:16;98571.1;;;7.62;100
17950;BME280;9100;48.700;9.316;2024-02-21T02:37:17;98570.3;;;7.62;100
17950;BME280;9100;48.700;9.316;2024-02-21T02:38:16;98569.8;;;7.58;100
17950;BME280;9100;48.700;9.316;2024-02-21T02:38:32;98564.70000000001;;;7.58;100
17950;BME280;9100;48.700;9.316;2024-02-21T02:39:16;98560.5;;;7.57;100
17950;BME280;9100;48.700;9.316;2024-02-21T02:40:16;98562.2;;;7.57;100
17950;BME280;9100;48.700;9.316;2024-02-21T02:41:16;98572.6;;;7.55;100
17950;BME280;9100;48.700;9.316;2024-02-21T02:42:16;98565.7;;;7.56;100
17950;BME280;9100;48.700;9.316;2024-02-21T02:43:16;98565.9;;;7.54;100
17950;BME280;9100;48.700;9.316;2024-02-21T02:43:32;98572.79999999999;;;7.52;100
17950;BME280;9100;48.700;9.316;2024-02-21T02:44:16;98566;;;7.53;100
17950;BME280;9100;48.700;9.316;2024-02-21T02:45:17;98568.4;;;7.54;100
17950;BME280;9100;48.700;9.316;2024-02-21T02:46:16;98562.5;;;7.54;100
17950;BME280;9100;48.700;9.316;2024-02-21T02:47:16;98561.7;;;7.53;100
17950;BME280;9100;48.700;9.316;2024-02-21T02:48:16;98557.7;;;7.51;100
17950;BME280;9100;48.700;9.316;2024-02-21T02:48:32;98562;;;7.5;100
17950;BME280;9100;48.700;9.316;2024-02-21T02:49:16;98559.6;;;7.49;100
17950;BME280;9100;48.700;9.316;2024-02-21T02:50:16;98562.90000000001;;;7.49;100
17950;BME280;9100;48.700;9.316;2024-02-21T02:51:16;98551.8;;;7.5;100
17950;BME280;9100;48.700;9.316;2024-02-21T02:52:16;98560.40000000001;;;7.49;100
17950;BME280;9100;48.700;9.316;2024-02-21T02:53:16;98557.8;;;7.49;100
17950;BME280;9100;48.700;9.316;2024-02-21T02:53:32;98552.70000000001;;;7.49;100
17950;BME280;9100;48.700;9.316;2024-02-21T02:54:16;98556.9;;;7.5;100
17950;BME280;9100;48.700;9.316;2024-02-21T02:55:16;98560.40000000001;;;7.49;100
17950;BME280;9100;48.700;9.316;2024-02-21T02:56:16;98555.3;;;7.49;100
17950;BME280;9100;48.700;9.316;2024-02-21T02:57:16;98556.1;;;7.5;100
17950;BME280;9100;48.700;9.316;2024-02-21T02:58:16;98543.6;;;7.47;100
17950;BME280;9100;48.700;9.316;2024-02-21T02:58:32;98555.4;;;7.48;100
17950;BME280;9100;48.700;9.316;2024-02-21T02:59:16;98548.7;;;7.47;100
17950;BME280;9100;48.700;9.316;2024-02-21T03:00:17;98550.5;;;7.46;100
17950;BME280;9100;48.700;9.316;2024-02-21T03:01:16;98544.6;;;7.46;100
17950;BME280;9100;48.700;9.316;2024-02-21T03:02:17;98549.7;;;7.46;100
17950;BME280;9100;48.700;9.316;2024-02-21T03:03:16;98534.6;;;7.44;100
17950;BME280;9100;48.700;9.316;2024-02-21T03:03:32;98542.2;;;7.44;100
17950;BME280;9100;48.700;9.316;2024-02-21T03:04:16;98535.5;;;7.43;100
17950;BME280;9100;48.700;9.316;2024-02-21T03:05:17;98543.1;;;7.43;100
17950;BME280;9100;48.700;9.316;2024-02-21T03:06:16;98532;;;7.44;100
17950;BME280;9100;48.700;9.316;2024-02-21T03:07:16;98539.59999999999;;;7.44;100
17950;BME280;9100;48.700;9.316;2024-02-21T03:08:16;98531.2;;;7.44;100
17950;BME280;9100;48.700;9.316;2024-02-21T03:08:32;98533.90000000001;;;7.42;100
17950;BME280;9100;48.700;9.316;2024-02-21T03:09:16;98530.4;;;7.43;100
17950;BME280;9100;48.700;9.316;2024-02-21T03:10:17;98532;;;7.44;100
17950;BME280;9100;48.700;9.316;2024-02-21T03:11:16;98521.8;;;7.44;100
17950;BME280;9100;48.700;9.316;2024-02-21T03:12:16;98521.8;;;7.44;100
17950;BME280;9100;48.700;9.316;2024-02-21T03:13:16;98521;;;7.44;100
17950;BME280;9100;48.700;9.316;2024-02-21T03:13:32;98523.6;;;7.44;100
17950;BME280;9100;48.700;9.316;2024-02-21T03:14:16;98511.7;;;7.44;100
17950;BME280;9100;48.700;9.316;2024-02-21T03:15:16;98518.3;;;7.45;100
17950;BME280;9100;48.700;9.316;2024-02-21T03:16:17;98514;;;7.46;100
17950;BME280;9100;48.700;9.316;2024-02-21T03:17:16;98511.40000000001;;;7.47;100
17950;BME280;9100;48.700;9.316;2024-02-21T03:18:16;98508;;;7.47;100
17950;BME280;9100;48.700;9.316;2024-02-21T03:18:32;98503.7;;;7.47;100
17950;BME280;9100;48.700;9.316;2024-02-21T03:19:16;98507.9;;;7.48;100
17950;BME280;9100;48.700;9.316;2024-02-21T03:20:16;98505.2;;;7.5;100
17950;BME280;9100;48.700;9.316;2024-02-21T03:21:16;98505.3;;;7.48;100
17950;BME280;9100;48.700;9.316;2024-02-21T03:22:16;98500.9;;;7.5;100
17950;BME280;9100;48.700;9.316;2024-02-21T03:23:16;98503.5;;;7.5;100
17950;BME280;9100;48.700;9.316;2024-02-21T03:23:32;98508.5;;;7.5;100
17950;BME280;9100;48.700;9.316;2024-02-21T03:24:16;98503.3;;;7.52;100
17950;BME280;9100;48.700;9.316;2024-02-21T03:25:16;98496.5;;;7.52;100
17950;BME280;9100;48.700;9.316;2024-02-21T03:26:17;98497.1;;;7.54;100
17950;BME280;9100;48.700;9.316;2024-02-21T03:27:16;98502.20000000001;;;7.54;100
17950;BME280;9100;48.700;9.316;2024-02-21T03:28:16;98495.5;;;7.53;100
17950;BME280;9100;48.700;9.316;2024-02-21T03:28:32;98497.1;;;7.54;100
17950;BME280;9100;48.700;9.316;2024-02-21T03:29:16;98493.7;;;7.55;100
17950;BME280;9100;48.700;9.316;2024-02-21T03:30:17;98495.3;;;7.56;100
17950;BME280;9100;48.700;9.316;2024-02-21T03:31:16;98494.5;;;7.56;100
17950;BME280;9100;48.700;9.316;2024-02-21T03:32:16;98493.4;;;7.58;100
17950;BME280;9100;48.700;9.316;2024-02-21T03:33:16;98488.3;;;7.58;100
17950;BME280;9100;48.700;9.316;2024-02-21T03:33:32;98483.2;;;7.58;100
17950;BME280;9100;48.700;9.316;2024-02-21T03:34:16;98489.09999999999;;;7.59;100
17950;BME280;9100;48.700;9.316;2024-02-21T03:35:16;98488.09999999999;;;7.6;100
17950;BME280;9100;48.700;9.316;2024-02-21T03:36:16;98492.2;;;7.62;100
17950;BME280;9100;48.700;9.316;2024-02-21T03:37:16;98491.2;;;7.63;100
17950;BME280;9100;48.700;9.316;2024-02-21T03:38:16;98498.1;;;7.63;100
17950;BME280;9100;48.700;9.316;2024-02-21T03:38:32;98501.5;;;7.62;100
17950;BME280;9100;48.700;9.316;2024-02-21T03:39:16;98509;;;7.63;100
17950;BME280;9100;48.700;9.316;2024-02-21T03:40:16;98503.2;;;7.63;100
17950;BME280;9100;48.700;9.316;2024-02-21T03:41:16;98507.2;;;7.65;100
17950;BME280;9100;48.700;9.316;2024-02-21T03:42:17;98509.7;;;7.65;100
17950;BME280;9100;48.700;9.316;2024-02-21T03:43:16;98509.7;;;7.65;100
17950;BME280;9100;48.700;9.316;2024-02-21T03:43:32;98509.7;;;7.65;100
17950;BME280;9100;48.700;9.316;2024-02-21T03:44:17;98505.4;;;7.66;100
17950;BME280;9100;48.700;9.316;2024-02-21T03:45:16;98504.3;;;7.68;100
17950;BME280;9100;48.700;9.316;2024-02-21T03:46:17;98512.8;;;7.69;100
17950;BME280;9100;48.700;9.316;2024-02-21T03:47:16;98505.9;;;7.69;100
17950;BME280;9100;48.700;9.316;2024-02-21T03:48:16;98502.4;;;7.7;100
17950;BME280;9100;48.700;9.316;2024-02-21T03:48:32;98502.4;;;7.7;100
17950;BME280;9100;48.700;9.316;2024-02-21T03:49:16;98500.7;;;7.71;100
17950;BME280;9100;48.700;9.316;2024-02-21T03:50:16;98496.40000000001;;;7.71;100
17950;BME280;9100;48.700;9.316;2024-02-21T03:51:16;98495.5;;;7.72;100
17950;BME280;9100;48.700;9.316;2024-02-21T03:52:16;98487;;;7.72;100
17950;BME280;9100;48.700;9.316;2024-02-21T03:53:16;98482.9;;;7.71;100
17950;BME280;9100;48.700;9.316;2024-02-21T03:53:32;98477;;;7.7;100
17950;BME280;9100;48.700;9.316;2024-02-21T03:54:16;98477.9;;;7.69;100
17950;BME280;9100;48.700;9.316;2024-02-21T03:55:16;98475.40000000001;;;7.69;100
17950;BME280;9100;48.700;9.316;2024-02-21T03:56:16;98474.59999999999;;;7.69;100
17950;BME280;9100;48.700;9.316;2024-02-21T03:57:16;98477.9;;;7.69;100
17950;BME280;9100;48.700;9.316;2024-02-21T03:58:16;98483.2;;;7.68;100
17950;BME280;9100;48.700;9.316;2024-02-21T03:58:32;98482.4;;;7.67;100
17950;BME280;9100;48.700;9.316;2024-02-21T03:59:17;98483.2;;;7.68;100
17950;BME280;9100;48.700;9.316;2024-02-21T04:00:17;98485.6;;;7.69;100
17950;BME280;9100;48.700;9.316;2024-02-21T04:01:16;98493.2;;;7.69;100
17950;BME280;9100;48.700;9.316;2024-02-21T04:02:17;98495;;;7.69;100
17950;BME280;9100;48.700;9.316;2024-02-21T04:03:16;98495.8;;;7.69;100
17950;BME280;9100;48.700;9.316;2024-02-21T04:03:32;98505.9;;;7.69;100
17950;BME280;9100;48.700;9.316;2024-02-21T04:04:17;98491.5;;;7.7;100
17950;BME280;9100;48.700;9.316;2024-02-21T04:05:16;98492.2;;;7.7;100
17950;BME280;9100;48.700;9.316;2024-02-21T04:06:16;98495.6;;;7.71;100
17950;BME280;9100;48.700;9.316;2024-02-21T04:07:17;98489.70000000001;;;7.7;100
17950;BME280;9100;48.700;9.316;2024-02-21T04:08:16;98487.3;;;7.69;100
17950;BME280;9100;48.700;9.316;2024-02-21T04:08:32;98482.2;;;7.69;100
17950;BME280;9100;48.700;9.316;2024-02-21T04:09:16;98487.40000000001;;;7.67;100
17950;BME280;9100;48.700;9.316;2024-02-21T04:10:17;98482.4;;;7.67;100
17950;BME280;9100;48.700;9.316;2024-02-21T04:11:17;98476.5;;;7.67;100
17950;BME280;9100;48.700;9.316;2024-02-21T04:12:16;98476.59999999999;;;7.65;100
17950;BME280;9100;48.700;9.316;2024-02-21T04:13:17;98475.9;;;7.63;100
17950;BME280;9100;48.700;9.316;2024-02-21T04:13:32;98469.3;;;7.62;100
17950;BME280;9100;48.700;9.316;2024-02-21T04:14:16;98474.40000000001;;;7.62;100
17950;BME280;9100;48.700;9.316;2024-02-21T04:15:16;98471.1;;;7.6;100
17950;BME280;9100;48.700;9.316;2024-02-21T04:16:17;98473.7;;;7.6;100
17950;BME280;9100;48.700;9.316;2024-02-21T04:17:16;98470.3;;;7.6;100
17950;BME280;9100;48.700;9.316;2024-02-21T04:18:16;98470.5;;;7.58;100
17950;BME280;9100;48.700;9.316;2024-02-21T04:18:32;98467.9;;;7.58;100
17950;BME280;9100;48.700;9.316;2024-02-21T04:19:16;98456.1;;;7.57;100
17950;BME280;9100;48.700;9.316;2024-02-21T04:20:17;98447.7;;;7.57;100
17950;BME280;9100;48.700;9.316;2024-02-21T04:21:16;98452;;;7.56;100
17950;BME280;9100;48.700;9.316;2024-02-21T04:22:16;98445.3;;;7.55;100
17950;BME280;9100;48.700;9.316;2024-02-21T04:23:16;98451.3;;;7.54;100
17950;BME280;9100;48.700;9.316;2024-02-21T04:23:32;98446.3;;;7.54;100
17950;BME280;9100;48.700;9.316;2024-02-21T04:24:16;98446.3;;;7.54;100
17950;BME280;9100;48.700;9.316;2024-02-21T04:25:16;98441.2;;;7.54;100
17950;BME280;9100;48.700;9.316;2024-02-21T04:26:16;98434.5;;;7.53;100
17950;BME280;9100;48.700;9.316;2024-02-21T04:27:16;98432.8;;;7.52;100
17950;BME280;9100;48.700;9.316;2024-02-21T04:28:16;98432.1;;;7.52;100
17950;BME280;9100;48.700;9.316;2024-02-21T04:28:32;98429.7;;;7.5;100
17950;BME280;9100;48.700;9.316;2024-02-21T04:29:16;98434.7;;;7.5;100
17950;BME280;9100;48.700;9.316;2024-02-21T04:30:17;98428;;;7.49;100
17950;BME280;9100;48.700;9.316;2024-02-21T04:31:17;98425.7;;;7.48;100
17950;BME280;9100;48.700;9.316;2024-02-21T04:32:16;98420.7;;;7.46;100
17950;BME280;9100;48.700;9.316;2024-02-21T04:33:16;98415;;;7.44;100
17950;BME280;9100;48.700;9.316;2024-02-21T04:33:32;98415;;;7.44;100
17950;BME280;9100;48.700;9.316;2024-02-21T04:34:17;98415;;;7.44;100
17950;BME280;9100;48.700;9.316;2024-02-21T04:35:16;98414.20000000001;;;7.44;100
17950;BME280;9100;48.700;9.316;2024-02-21T04:36:17;98407.5;;;7.43;100
17950;BME280;9100;48.700;9.316;2024-02-21T04:37:16;98407.3;;;7.44;100
17950;BME280;9100;48.700;9.316;2024-02-21T04:38:16;98412.5;;;7.43;100
17950;BME280;9100;48.700;9.316;2024-02-21T04:38:32;98401.59999999999;;;7.42;100